createdAt,value
2023-02-12T00:01:29.562Z,70.42
2023-02-12T00:03:58.449Z,70.55
2023-02-12T00:06:27.155Z,70.74
2023-02-12T00:08:58.384Z,70.85
2023-02-12T00:11:30.094Z,70.95
2023-02-12T00:13:58.939Z,70.90
2023-02-12T00:16:29.834Z,71.15
2023-02-12T00:18:59.205Z,71.02
2023-02-12T00:21:29.938Z,71.10
2023-02-12T00:23:59.108Z,71.23
2023-02-12T00:26:27.671Z,71.03
2023-02-12T00:28:56.294Z,71.17
2023-02-12T00:31:28.134Z,71.27
2023-02-12T00:34:00.855Z,70.92
2023-02-12T00:36:31.948Z,71.09
2023-02-12T00:39:01.264Z,71.36
2023-02-12T00:41:29.730Z,71.32
2023-02-12T00:43:58.380Z,71.39
2023-02-12T00:46:26.689Z,71.47
2023-02-12T00:48:55.086Z,71.48
2023-02-12T00:51:24.893Z,71.70
2023-02-12T00:53:53.218Z,71.84
2023-02-12T00:56:21.539Z,71.94
2023-02-12T00:58:50.753Z,71.90
2023-02-12T01:01:19.747Z,72.17
2023-02-12T01:03:48.434Z,72.21
2023-02-12T01:06:16.924Z,72.28
2023-02-12T01:08:51.331Z,72.27
2023-02-12T01:11:20.660Z,72.04
2023-02-12T01:13:50.132Z,72.42
2023-02-12T01:16:21.259Z,72.33
2023-02-12T01:18:53.182Z,72.38
2023-02-12T01:21:27.607Z,72.51
2023-02-12T01:23:58.204Z,72.59
2023-02-12T01:26:28.326Z,72.96
2023-02-12T01:28:59.254Z,72.74
2023-02-12T01:31:31.157Z,72.85
2023-02-12T01:34:01.975Z,72.98
2023-02-12T01:36:32.212Z,72.89
2023-02-12T01:39:02.950Z,72.95
2023-02-12T01:41:33.953Z,72.85
2023-02-12T01:44:17.438Z,72.95
2023-02-12T01:46:49.173Z,73.00
2023-02-12T01:49:24.012Z,73.16
2023-02-12T01:51:56.556Z,73.20
2023-02-12T01:54:26.938Z,73.28
2023-02-12T01:56:56.100Z,73.39
2023-02-12T01:59:25.879Z,73.55
2023-02-12T02:01:55.840Z,73.56
2023-02-12T02:04:28.609Z,73.84
2023-02-12T02:07:00.878Z,73.73
2023-02-12T02:09:33.148Z,73.64
2023-02-12T02:12:20.507Z,73.74
2023-02-12T02:14:51.065Z,73.79
2023-02-12T02:17:48.382Z,73.83
2023-02-12T02:20:45.932Z,73.80
2023-02-12T02:24:04.741Z,73.90
2023-02-12T02:26:55.938Z,73.96
2023-02-12T02:30:08.079Z,73.93
2023-02-12T02:32:45.433Z,73.94
2023-02-12T02:35:22.146Z,74.08
2023-02-12T02:38:01.644Z,74.52
2023-02-12T02:40:40.337Z,74.42
2023-02-12T02:43:17.019Z,74.46
2023-02-12T02:45:50.097Z,74.26
2023-02-12T02:48:23.776Z,74.32
2023-02-12T02:50:59.252Z,74.42
2023-02-12T02:53:33.281Z,74.54
2023-02-12T02:56:05.059Z,74.56
2023-02-12T02:58:37.852Z,74.43
2023-02-12T03:01:11.332Z,74.31
2023-02-12T03:03:48.585Z,74.34
2023-02-12T03:06:23.440Z,74.47
2023-02-12T03:08:55.071Z,74.57
2023-02-12T03:11:27.484Z,74.66
2023-02-12T03:14:04.205Z,74.71
2023-02-12T03:16:35.264Z,74.65
2023-02-12T03:19:12.352Z,75.00
2023-02-12T03:21:47.439Z,74.83
2023-02-12T03:24:22.478Z,74.72
2023-02-12T03:26:53.474Z,74.80
2023-02-12T03:29:21.975Z,74.93
2023-02-12T03:32:07.557Z,74.47
2023-02-12T03:34:48.866Z,74.92
2023-02-12T03:37:22.280Z,74.94
2023-02-12T03:39:58.242Z,74.65
2023-02-12T03:42:36.619Z,74.57
2023-02-12T03:45:11.667Z,74.24
2023-02-12T03:47:45.620Z,74.76
2023-02-12T03:50:22.677Z,74.74
2023-02-12T03:52:52.351Z,75.14
2023-02-12T03:55:20.909Z,74.86
2023-02-12T03:57:53.519Z,74.91
2023-02-12T04:00:24.284Z,75.13
2023-02-12T04:02:53.973Z,75.49
2023-02-12T04:05:26.929Z,75.45
2023-02-12T04:07:58.650Z,75.32
2023-02-12T04:10:34.606Z,75.69
2023-02-12T04:13:13.085Z,75.69
2023-02-12T04:16:05.390Z,75.67
2023-02-12T04:18:43.566Z,75.84
2023-02-12T04:21:25.186Z,76.07
2023-02-12T04:24:08.837Z,76.13
2023-02-12T04:26:44.068Z,76.08
2023-02-12T04:29:28.280Z,76.15
2023-02-12T04:32:01.555Z,76.23
2023-02-12T04:34:35.902Z,76.08
2023-02-12T04:37:11.344Z,76.28
2023-02-12T04:39:42.589Z,76.28
2023-02-12T04:42:10.986Z,76.16
2023-02-12T04:44:42.838Z,76.36
2023-02-12T04:47:13.447Z,76.29
2023-02-12T04:49:42.228Z,76.24
2023-02-12T04:52:11.866Z,76.46
2023-02-12T04:54:40.114Z,76.39
2023-02-12T04:57:08.426Z,76.55
2023-02-12T04:59:36.794Z,76.62
2023-02-12T05:02:05.188Z,76.49
2023-02-12T05:04:33.511Z,76.58
2023-02-12T05:07:01.764Z,76.39
2023-02-12T05:09:31.646Z,76.60
2023-02-12T05:11:59.901Z,76.60
2023-02-12T05:14:28.282Z,76.64
2023-02-12T05:16:56.621Z,76.83
2023-02-12T05:19:24.860Z,76.83
2023-02-12T05:21:53.152Z,76.78
2023-02-12T05:24:21.349Z,76.98
2023-02-12T05:26:52.751Z,76.95
2023-02-12T05:29:21.157Z,77.00
2023-02-12T05:31:49.607Z,76.86
2023-02-12T05:34:17.987Z,76.98
2023-02-12T05:36:46.254Z,77.01
2023-02-12T05:39:14.514Z,76.94
2023-02-12T05:41:42.763Z,77.06
2023-02-12T05:44:12.531Z,76.92
2023-02-12T05:46:41.017Z,77.01
2023-02-12T05:49:09.409Z,77.22
2023-02-12T05:51:38.653Z,77.10
2023-02-12T05:54:08.494Z,77.35
2023-02-12T05:56:42.615Z,77.03
2023-02-12T05:59:18.078Z,76.71
2023-02-12T06:01:48.430Z,76.58
2023-02-12T06:04:19.680Z,76.60
2023-02-12T06:06:48.164Z,76.73
2023-02-12T06:09:16.952Z,76.57
2023-02-12T06:11:45.730Z,76.47
2023-02-12T06:14:18.090Z,76.23
2023-02-12T06:16:47.605Z,76.16
2023-02-12T06:19:16.020Z,75.94
2023-02-12T06:21:44.660Z,76.00
2023-02-12T06:24:14.455Z,76.06
2023-02-12T06:26:43.470Z,76.23
2023-02-12T06:29:13.181Z,76.49
2023-02-12T06:31:43.263Z,76.36
2023-02-12T06:34:13.566Z,76.52
2023-02-12T06:36:44.445Z,76.43
2023-02-12T06:39:13.524Z,76.22
2023-02-12T06:41:42.147Z,76.48
2023-02-12T06:44:11.848Z,76.56
2023-02-12T06:46:40.300Z,77.08
2023-02-12T06:49:14.188Z,77.20
2023-02-12T06:51:42.549Z,76.75
2023-02-12T06:54:15.708Z,77.39
2023-02-12T06:56:44.326Z,77.27
2023-02-12T06:59:16.593Z,77.92
2023-02-12T07:01:45.263Z,78.49
2023-02-12T07:04:15.439Z,78.78
2023-02-12T07:06:43.830Z,79.02
2023-02-12T07:09:12.232Z,78.76
2023-02-12T07:11:40.714Z,78.21
2023-02-12T07:14:14.824Z,77.94
2023-02-12T07:16:44.599Z,78.20
2023-02-12T07:19:16.383Z,78.47
2023-02-12T07:21:44.893Z,78.56
2023-02-12T07:24:14.293Z,78.40
2023-02-12T07:26:43.506Z,78.54
2023-02-12T07:29:12.699Z,78.35
2023-02-12T07:31:41.975Z,78.16
2023-02-12T07:34:12.160Z,78.25
2023-02-12T07:36:42.253Z,78.76
2023-02-12T07:39:13.626Z,79.11
2023-02-12T07:41:41.898Z,78.77
2023-02-12T07:44:13.397Z,77.97
2023-02-12T07:46:47.031Z,77.95
2023-02-12T07:49:19.047Z,77.66
2023-02-12T07:51:49.418Z,77.25
2023-02-12T07:54:18.245Z,76.78
2023-02-12T07:56:47.675Z,76.48
2023-02-12T07:59:18.550Z,76.89
2023-02-12T08:01:49.695Z,77.19
2023-02-12T08:04:20.599Z,76.99
2023-02-12T08:06:53.648Z,77.28
2023-02-12T08:09:25.138Z,77.44
2023-02-12T08:11:54.092Z,77.50
2023-02-12T08:14:23.722Z,77.53
2023-02-12T08:16:53.105Z,77.17
2023-02-12T08:19:25.776Z,77.27
2023-02-12T08:21:57.524Z,77.29
2023-02-12T08:24:26.754Z,77.37
2023-02-12T08:26:55.126Z,77.87
2023-02-12T08:29:26.213Z,77.64
2023-02-12T08:31:58.786Z,77.52
2023-02-12T08:34:29.266Z,77.85
2023-02-12T08:37:00.209Z,77.72
2023-02-12T08:39:30.769Z,77.91
2023-02-12T08:42:01.070Z,77.79
2023-02-12T08:44:30.171Z,77.77
2023-02-12T08:46:58.608Z,77.54
2023-02-12T08:49:29.694Z,77.51
2023-02-12T08:52:01.716Z,77.43
2023-02-12T08:54:32.817Z,77.40
2023-02-12T08:57:03.766Z,77.24
2023-02-12T08:59:32.754Z,77.33
2023-02-12T09:02:01.943Z,77.47
2023-02-12T09:04:30.850Z,76.90
2023-02-12T09:07:00.756Z,77.22
2023-02-12T09:09:29.632Z,77.04
2023-02-12T09:11:58.080Z,78.10
2023-02-12T09:14:26.577Z,77.20
2023-02-12T09:16:57.286Z,77.24
2023-02-12T09:19:26.552Z,77.13
2023-02-12T09:21:57.093Z,76.87
2023-02-12T09:24:28.448Z,76.75
2023-02-12T09:26:56.921Z,76.56
2023-02-12T09:29:25.351Z,76.45
2023-02-12T09:31:53.839Z,76.59
2023-02-12T09:34:22.264Z,76.02
2023-02-12T09:36:50.615Z,76.30
2023-02-12T09:39:19.022Z,76.54
2023-02-12T09:42:17.911Z,77.31
2023-02-12T09:44:51.702Z,78.00
2023-02-12T09:47:27.916Z,78.25
2023-02-12T09:50:12.412Z,78.58
2023-02-12T09:52:41.371Z,78.98
2023-02-12T09:55:16.305Z,79.12
2023-02-12T09:57:46.308Z,78.82
2023-02-12T10:00:20.400Z,78.49
2023-02-12T10:02:51.805Z,79.02
2023-02-12T10:05:26.256Z,78.70
2023-02-12T10:08:11.666Z,78.71
2023-02-12T10:10:53.820Z,79.14
2023-02-12T10:13:39.657Z,77.86
2023-02-12T10:16:16.182Z,78.00
2023-02-12T10:19:07.336Z,77.32
2023-02-12T10:21:50.417Z,78.83
2023-02-12T10:24:49.180Z,79.15
2023-02-12T10:27:22.108Z,78.07
2023-02-12T10:29:52.745Z,77.10
2023-02-12T10:32:26.988Z,77.31
2023-02-12T10:34:56.902Z,76.89
2023-02-12T10:37:35.363Z,77.07
2023-02-12T10:40:17.134Z,76.95
2023-02-12T10:42:48.531Z,77.68
2023-02-12T10:45:21.456Z,77.50
2023-02-12T10:47:55.931Z,77.95
2023-02-12T10:50:35.704Z,78.36
2023-02-12T10:53:04.635Z,76.78
2023-02-12T10:55:35.825Z,76.33
2023-02-12T10:58:06.347Z,76.30
2023-02-12T11:00:39.268Z,76.76
2023-02-12T11:03:22.819Z,77.04
2023-02-12T11:05:51.495Z,77.15
2023-02-12T11:08:36.502Z,76.72
2023-02-12T11:11:10.383Z,77.63
2023-02-12T11:13:44.616Z,78.27
2023-02-12T11:16:15.041Z,76.81
2023-02-12T11:18:43.930Z,77.15
2023-02-12T11:21:14.213Z,76.75
2023-02-12T11:23:46.072Z,76.22
2023-02-12T11:26:28.223Z,76.03
2023-02-12T11:28:59.885Z,75.63
2023-02-12T11:31:31.899Z,75.59
2023-02-12T11:34:16.552Z,74.33
2023-02-12T11:36:47.608Z,74.46
2023-02-12T11:39:22.381Z,75.00
2023-02-12T11:41:53.210Z,75.13
2023-02-12T11:44:24.311Z,74.57
2023-02-12T11:46:58.150Z,74.37
2023-02-12T11:49:31.612Z,74.58
2023-02-12T11:52:04.302Z,76.36
2023-02-12T11:54:44.149Z,76.76
2023-02-12T11:57:39.187Z,77.34
2023-02-12T12:00:16.602Z,77.57
2023-02-12T12:02:59.620Z,76.13
2023-02-12T12:05:33.584Z,75.90
2023-02-12T12:08:08.832Z,74.63
2023-02-12T12:10:42.477Z,73.64
2023-02-12T12:13:17.525Z,73.40
2023-02-12T12:16:07.246Z,73.64
2023-02-12T12:19:03.568Z,73.04
2023-02-12T12:21:41.571Z,73.42
2023-02-12T12:24:18.275Z,72.82
2023-02-12T12:27:00.484Z,72.78
2023-02-12T12:29:46.031Z,72.15
2023-02-12T12:32:17.587Z,72.01
2023-02-12T12:34:48.439Z,70.84
2023-02-12T12:37:30.562Z,70.21
2023-02-12T12:40:16.940Z,70.45
2023-02-12T12:43:01.016Z,69.88
2023-02-12T12:45:55.485Z,70.14
2023-02-12T12:48:44.952Z,69.75
2023-02-12T12:51:31.245Z,68.91
2023-02-12T12:54:14.895Z,68.69
2023-02-12T12:57:00.024Z,68.47
2023-02-12T12:59:58.456Z,68.58
2023-02-12T13:03:10.559Z,66.87
2023-02-12T13:06:09.948Z,65.55
2023-02-12T13:08:57.566Z,64.80
2023-02-12T13:11:39.122Z,63.24
2023-02-12T13:14:28.533Z,62.47
2023-02-12T13:17:09.082Z,61.93
2023-02-12T13:19:53.517Z,63.27
2023-02-12T13:22:30.990Z,63.01
2023-02-12T13:25:09.079Z,61.07
2023-02-12T13:27:42.338Z,59.90
2023-02-12T13:30:22.386Z,57.75
2023-02-12T13:33:02.236Z,57.23
2023-02-12T13:35:32.590Z,56.48
2023-02-12T13:38:04.155Z,55.18
2023-02-12T13:40:34.258Z,54.45
2023-02-12T13:43:18.792Z,53.45
2023-02-12T13:45:58.653Z,53.32
2023-02-12T13:48:45.204Z,52.62
2023-02-12T13:51:25.436Z,51.65
2023-02-12T13:54:09.288Z,50.92
2023-02-12T13:56:44.231Z,50.77
2023-02-12T13:59:42.656Z,48.64
2023-02-12T14:02:46.393Z,48.54
2023-02-12T14:05:32.229Z,48.43
2023-02-12T14:08:07.209Z,48.14
2023-02-12T14:10:38.824Z,47.50
2023-02-12T14:13:20.958Z,47.33
2023-02-12T14:15:52.209Z,46.82
2023-02-12T14:18:32.846Z,47.06
2023-02-12T14:21:37.662Z,46.89
2023-02-12T14:24:51.364Z,46.67
2023-02-12T14:27:33.746Z,45.95
2023-02-12T14:30:31.785Z,46.30
2023-02-12T14:33:20.693Z,45.98
2023-02-12T14:35:52.515Z,45.73
2023-02-12T14:38:59.128Z,45.27
2023-02-12T14:41:41.862Z,44.77
2023-02-12T14:44:57.223Z,44.50
2023-02-12T14:47:54.137Z,44.87
2023-02-12T14:50:37.289Z,45.62
2023-02-12T14:53:18.677Z,45.49
2023-02-12T14:55:48.414Z,45.20
2023-02-12T14:58:21.657Z,45.17
2023-02-12T15:00:55.200Z,45.22
2023-02-12T15:03:32.903Z,45.22
2023-02-12T15:06:09.659Z,45.36
2023-02-12T15:08:46.481Z,45.64
2023-02-12T15:11:25.038Z,45.40
2023-02-12T15:14:00.714Z,45.28
2023-02-12T15:16:36.885Z,45.11
2023-02-12T15:19:19.557Z,45.16
2023-02-12T15:21:48.611Z,45.48
2023-02-12T15:24:24.185Z,45.30
2023-02-12T15:26:55.027Z,45.17
2023-02-12T15:29:27.560Z,44.89
2023-02-12T15:31:58.794Z,44.24
2023-02-12T15:34:33.097Z,43.91
2023-02-12T15:37:03.866Z,43.15
2023-02-12T15:39:41.248Z,43.20
2023-02-12T15:42:30.441Z,43.19
2023-02-12T15:45:22.003Z,42.66
2023-02-12T15:48:11.743Z,43.48
2023-02-12T15:50:55.812Z,43.31
2023-02-12T15:53:27.346Z,43.88
2023-02-12T15:55:56.118Z,44.50
2023-02-12T15:58:26.813Z,44.35
2023-02-12T16:01:02.191Z,44.94
2023-02-12T16:03:33.262Z,44.99
2023-02-12T16:06:11.151Z,45.06
2023-02-12T16:08:41.325Z,45.60
2023-02-12T16:11:14.769Z,45.82
2023-02-12T16:13:47.552Z,46.27
2023-02-12T16:16:23.959Z,46.68
2023-02-12T16:19:15.391Z,46.81
2023-02-12T16:21:48.176Z,47.16
2023-02-12T16:24:29.588Z,47.27
2023-02-12T16:26:59.478Z,47.79
2023-02-12T16:29:27.892Z,47.96
2023-02-12T16:32:02.205Z,48.32
2023-02-12T16:34:36.939Z,48.75
2023-02-12T16:37:47.153Z,48.84
2023-02-12T16:40:32.790Z,49.06
2023-02-12T16:43:27.078Z,49.17
2023-02-12T16:46:06.745Z,49.39
2023-02-12T16:48:40.873Z,49.69
2023-02-12T16:51:24.043Z,50.28
2023-02-12T16:53:57.332Z,50.39
2023-02-12T16:56:28.680Z,50.42
2023-02-12T16:58:59.844Z,51.04
2023-02-12T17:01:31.270Z,51.23
2023-02-12T17:04:03.416Z,51.44
2023-02-12T17:06:33.099Z,51.62
2023-02-12T17:12:18.756Z,52.26
2023-02-12T17:14:47.221Z,52.61
2023-02-12T17:17:15.676Z,53.25
2023-02-12T17:19:44.066Z,53.37
2023-02-12T17:22:21.619Z,53.97
2023-02-12T17:24:51.562Z,54.19
2023-02-12T17:27:21.828Z,54.43
2023-02-12T17:29:50.332Z,54.51
2023-02-12T17:32:18.878Z,55.03
2023-02-12T17:34:48.959Z,55.21
2023-02-12T17:37:18.666Z,55.27
2023-02-12T17:39:47.145Z,55.62
2023-02-12T17:42:15.461Z,55.80
2023-02-12T17:44:45.326Z,56.27
2023-02-12T17:47:13.968Z,56.38
2023-02-12T17:49:42.955Z,56.96
2023-02-12T17:52:11.409Z,57.11
2023-02-12T17:54:40.085Z,57.35
2023-02-12T17:57:08.387Z,57.27
2023-02-12T17:59:38.280Z,57.82
2023-02-12T18:02:08.434Z,58.20
2023-02-12T18:04:36.761Z,58.10
2023-02-12T18:07:06.215Z,58.44
2023-02-12T18:09:34.612Z,58.82
2023-02-12T18:12:02.906Z,58.66
2023-02-12T18:14:31.257Z,59.19
2023-02-12T18:16:59.778Z,59.37
2023-02-12T18:19:31.022Z,59.54
2023-02-12T18:21:59.566Z,59.25
2023-02-12T18:24:27.910Z,59.68
2023-02-12T18:26:56.194Z,60.06
2023-02-12T18:29:24.619Z,60.44
2023-02-12T18:31:55.309Z,60.59
2023-02-12T18:34:24.170Z,60.42
2023-02-12T18:36:54.053Z,60.80
2023-02-12T18:39:22.386Z,61.03
2023-02-12T18:41:50.821Z,61.36
2023-02-12T18:44:19.249Z,62.04
2023-02-12T18:46:47.496Z,61.92
2023-02-12T18:49:16.608Z,62.18
2023-02-12T18:51:45.156Z,61.98
2023-02-12T18:54:15.203Z,62.31
2023-02-12T18:56:46.701Z,62.73
2023-02-12T18:59:16.792Z,62.77
2023-02-12T19:01:47.210Z,63.18
2023-02-12T19:04:17.066Z,63.36
2023-02-12T19:06:48.920Z,64.01
2023-02-12T19:09:21.552Z,63.69
2023-02-12T19:11:51.960Z,64.10
2023-02-12T19:14:22.834Z,64.07
2023-02-12T19:16:51.371Z,64.53
2023-02-12T19:19:21.268Z,64.86
2023-02-12T19:21:49.668Z,64.99
2023-02-12T19:24:19.492Z,65.31
2023-02-12T19:26:52.196Z,64.85
2023-02-12T19:29:20.456Z,65.82
2023-02-12T19:31:48.902Z,65.52
2023-02-12T19:34:21.120Z,65.85
2023-02-12T19:36:50.783Z,66.16
2023-02-12T19:39:23.522Z,66.10
2023-02-12T19:41:52.664Z,66.46
2023-02-12T19:44:24.526Z,66.53
2023-02-12T19:46:54.913Z,66.35
2023-02-12T19:49:25.907Z,67.20
2023-02-12T19:51:55.063Z,67.09
2023-02-12T19:54:25.658Z,67.21
2023-02-12T19:56:55.231Z,67.77
2023-02-12T19:59:25.656Z,67.29
2023-02-12T20:01:56.139Z,67.74
2023-02-12T20:04:25.563Z,68.01
2023-02-12T20:06:54.167Z,67.85
2023-02-12T20:09:27.505Z,68.00
2023-02-12T20:11:56.967Z,68.19
2023-02-12T20:14:25.381Z,68.16
2023-02-12T20:16:58.442Z,68.67
2023-02-12T20:19:30.534Z,68.73
2023-02-12T20:22:01.606Z,68.84
2023-02-12T20:24:33.628Z,68.99
2023-02-12T20:27:03.716Z,69.34
2023-02-12T20:29:32.729Z,69.11
2023-02-12T20:32:01.267Z,69.15
2023-02-12T20:34:32.900Z,69.50
2023-02-12T20:37:06.625Z,69.95
2023-02-12T20:39:36.277Z,70.13
2023-02-12T20:42:05.020Z,70.39
2023-02-12T20:44:34.132Z,70.60
2023-02-12T20:47:02.952Z,70.62
2023-02-12T20:49:31.300Z,71.09
2023-02-12T20:51:59.613Z,71.15
2023-02-12T20:54:27.895Z,71.13
2023-02-12T20:56:57.644Z,71.04
2023-02-12T20:59:25.991Z,70.94
2023-02-12T21:01:54.417Z,71.21
2023-02-12T21:04:22.861Z,71.03
2023-02-12T21:06:52.388Z,71.46
2023-02-12T21:09:20.915Z,71.95
2023-02-12T21:11:49.591Z,72.11
2023-02-12T21:14:22.781Z,72.35
2023-02-12T21:16:52.702Z,72.64
2023-02-12T21:19:21.134Z,72.52
2023-02-12T21:21:52.251Z,72.97
2023-02-12T21:24:23.404Z,73.20
2023-02-12T21:26:52.587Z,73.75
2023-02-12T21:29:23.049Z,73.52
2023-02-12T21:31:52.091Z,73.76
2023-02-12T21:34:23.606Z,73.91
2023-02-12T21:36:54.994Z,73.89
2023-02-12T21:39:27.425Z,73.98
2023-02-12T21:42:00.052Z,74.17
2023-02-12T21:44:31.043Z,74.35
2023-02-12T21:47:03.290Z,74.34
2023-02-12T21:49:31.691Z,74.49
2023-02-12T21:52:02.583Z,74.56
2023-02-12T21:54:32.024Z,74.65
2023-02-12T21:57:00.786Z,74.66
2023-02-12T21:59:32.366Z,74.45
2023-02-12T22:02:01.741Z,74.27
2023-02-12T22:04:30.626Z,74.39
2023-02-12T22:07:03.064Z,74.34
2023-02-12T22:09:33.773Z,74.58
2023-02-12T22:12:02.228Z,74.76
2023-02-12T22:14:32.232Z,74.82
2023-02-12T22:17:00.688Z,74.94
2023-02-12T22:19:29.069Z,74.99
2023-02-12T22:21:57.404Z,75.06
2023-02-12T22:24:25.848Z,75.13
2023-02-12T22:26:55.746Z,75.07
2023-02-12T22:29:26.421Z,75.23
2023-02-12T22:31:56.428Z,75.17
2023-02-12T22:34:24.807Z,75.08
2023-02-12T22:36:53.214Z,75.02
2023-02-12T22:39:22.369Z,75.70
2023-02-12T22:41:50.862Z,75.81
2023-02-12T22:44:21.223Z,75.88
2023-02-12T22:46:50.971Z,76.29
2023-02-12T22:49:20.934Z,76.48
2023-02-12T22:51:49.351Z,76.18
2023-02-12T22:54:19.770Z,76.23
2023-02-12T22:56:52.311Z,76.16
2023-02-12T22:59:21.023Z,76.04
2023-02-12T23:01:49.324Z,76.38
2023-02-12T23:04:20.651Z,76.50
2023-02-12T23:06:49.196Z,76.80
2023-02-12T23:09:19.401Z,77.27
2023-02-12T23:11:48.710Z,77.48
2023-02-12T23:14:17.248Z,77.52
2023-02-12T23:16:46.295Z,78.29
2023-02-12T23:19:15.301Z,78.36
2023-02-12T23:21:45.193Z,78.67
2023-02-12T23:24:15.135Z,78.67
2023-02-12T23:26:43.647Z,78.57
2023-02-12T23:29:12.260Z,78.97
2023-02-12T23:31:40.847Z,78.58
2023-02-12T23:34:09.419Z,79.21
2023-02-12T23:36:37.853Z,79.13
2023-02-12T23:39:09.348Z,79.74
2023-02-12T23:41:37.697Z,80.45
2023-02-12T23:44:06.508Z,80.26
2023-02-12T23:46:34.876Z,80.80
2023-02-12T23:49:03.417Z,80.50
2023-02-12T23:51:31.849Z,80.58
2023-02-12T23:54:00.157Z,80.59
2023-02-12T23:56:30.231Z,80.64
2023-02-12T23:58:58.901Z,80.71
